Latest Weather Observations for Tuggeranong

IDN60801

Issued at 7:42 pm EST Wednesday 12 August 2020 (issued every 10 minutes, with the page automatically refreshed every 10 minutes)

About weather observations | Map of weather stations | Latest weather observations for NSW | Other Formats
Station Details ID: 070339 Name: TUGGERANONG (ISABELLA PLAINS) AWS Lat: -35.42 Lon: 149.09 Height: 586.7 m
Data from the previous 72 hours. | See also: Recent months at Tuggeranong
Date/Time
EST
Temp
°C
App
Temp
°C
Dew
Point
°C
Rel
Hum
%
Delta-T
°C
Wind Press
QNH
hPa
Press
MSL
hPa
Rain since
9am
mm
Dir  Spd
km/h
Gust
km/h
Spd
kts
Gust
kts
12/07:30pm 9.3 9.1 9.2 99 0.1 CALM 0 0 0 0 1013.1 1013.8 1.8
12/07:00pm 9.5 9.4 9.4 99 0.1 CALM 0 6 0 3 1013.0 1013.6 1.2
12/06:30pm 9.5 8.9 9.0 97 0.3 NNW 2 6 1 3 1012.6 1013.2 0.6
12/06:00pm 9.9 8.8 8.3 90 0.8 NNW 4 9 2 5 1012.4 1013.0 0.4
12/05:30pm 10.3 9.4 7.7 84 1.3 NW 2 7 1 4 1012.3 1012.9 0.0
12/05:00pm 10.6 8.7 7.5 81 1.5 N 7 11 4 6 1012.1 1012.7 0.0
12/04:30pm 10.6 8.3 7.5 81 1.5 N 9 13 5 7 1012.1 1012.7 0.0
12/04:00pm 11.2 8.5 7.3 77 1.9 NNW 11 19 6 10 1011.8 1012.5 0.0
12/03:30pm 11.1 9.2 7.4 78 1.8 NNW 7 15 4 8 1011.8 1012.5 0.0
12/03:00pm 11.0 8.8 7.7 80 1.6 NNW 9 15 5 8 1012.1 1012.7 0.0
12/02:30pm 10.7 8.2 8.3 85 1.2 NNW 11 17 6 9 1012.3 1012.9 0.0
12/02:00pm 11.5 7.9 6.8 73 2.3 NNW 15 24 8 13 1012.5 1013.1 0.0
12/01:30pm 11.6 7.9 6.5 71 2.5 N 15 20 8 11 1012.6 1013.2 0.0
12/01:00pm 11.5 8.2 6.2 70 2.6 N 13 20 7 11 1012.9 1013.5 0.0
12/12:30pm 11.6 9.0 5.9 68 2.8 N 9 19 5 10 1013.3 1014.0 0.0
12/12:00pm 11.3 8.6 5.6 68 2.7 NW 9 15 5 8 1014.1 1014.7 0.0
12/11:30am 12.0 9.7 5.6 65 3.1 WNW 7 15 4 8 1014.4 1015.0 0.0
12/11:00am 10.0 8.6 5.6 74 2.1 WSW 2 11 1 6 1015.1 1015.8 0.0
12/10:30am 8.3 6.4 4.9 79 1.6 N 4 7 2 4 1015.5 1016.2 0.0
12/10:00am 5.9 4.9 5.6 98 0.1 CALM 0 0 0 0 1016.1 1016.8 0.0
12/09:30am 4.8 3.6 4.7 99 0.0 CALM 0 0 0 0 1016.3 1017.0 0.0
12/09:00am 3.7 2.3 3.6 99 0.0 CALM 0 0 0 0 1016.5 1017.2 0.0
12/08:30am 2.5 0.9 2.4 99 0.0 CALM 0 0 0 0 1016.5 1017.2 0.0
12/08:00am 1.6 -0.2 1.5 99 0.0 CALM 0 0 0 0 1016.4 1017.1 0.0
12/07:30am 0.8 -1.5 0.7 99 0.0 E 2 7 1 4 1016.2 1016.9 0.0
12/07:00am 0.5 -1.4 0.4 99 0.0 CALM 0 0 0 0 1016.3 1017.0 0.0
12/06:30am 0.0 -2.0 -0.1 99 0.0 CALM 0 0 0 0 1016.2 1016.9 0.0
12/06:00am -0.4 -2.5 -0.5 99 0.0 CALM 0 0 0 0 1016.0 1016.7 0.0
12/05:30am 0.2 -1.8 0.1 99 0.0 CALM 0 0 0 0 1016.1 1016.8 0.0
12/05:00am -0.3 -2.3 -0.4 99 0.0 CALM 0 0 0 0 1016.3 1017.0 0.0
12/04:30am -0.3 -2.3 -0.4 99 0.0 CALM 0 0 0 0 1016.2 1016.9 0.0
12/04:00am 0.3 -1.7 0.2 99 0.0 CALM 0 0 0 0 1016.2 1016.9 0.0
12/03:30am 0.5 -1.4 0.4 99 0.0 CALM 0 0 0 0 1016.4 1017.1 0.0
12/03:00am -0.1 -2.1 -0.2 99 0.0 CALM 0 0 0 0 1016.4 1017.1 0.0
12/02:30am 0.6 -1.3 0.5 99 0.0 CALM 0 0 0 0 1016.4 1017.1 0.0
12/02:00am 0.6 -1.3 0.5 99 0.0 CALM 0 0 0 0 1016.8 1017.5 0.0
12/01:30am 1.3 -0.5 1.0 98 0.1 CALM 0 0 0 0 1017.2 1017.9 0.0
12/01:00am 2.1 0.4 2.0 99 0.0 CALM 0 0 0 0 1017.7 1018.4 0.0
12/12:30am 2.8 1.2 2.7 99 0.0 CALM 0 0 0 0 1017.7 1018.4 0.0
12/12:00am 3.3 0.7 3.2 99 0.0 ESE 6 9 3 5 1017.7 1018.4 0.0
 
Date/Time
EST
Temp
°C
App
Temp
°C
Dew
Point
°C
Rel
Hum
%
Delta-T
°C
Wind Press
QNH
hPa
Press
MSL
hPa
Rain since
9am
mm
Dir  Spd
km/h
Gust
km/h
Spd
kts
Gust
kts
11/11:30pm 2.9 1.4 2.8 99 0.0 CALM 0 0 0 0 1018.1 1018.8 0.0
11/11:00pm 2.9 1.4 2.8 99 0.0 CALM 0 0 0 0 1017.7 1018.4 0.0
11/10:30pm 2.4 0.4 2.3 99 0.0 NNW 2 9 1 5 1017.9 1018.6 0.0
11/10:00pm 2.8 1.2 2.7 99 0.0 CALM 0 0 0 0 1017.8 1018.5 0.0
11/09:30pm 2.7 1.1 2.6 99 0.0 CALM 0 0 0 0 1018.2 1018.9 0.0
11/09:00pm 2.6 1.0 2.2 97 0.2 CALM 0 0 0 0 1018.0 1018.7 0.0
11/08:30pm 3.1 1.1 2.4 95 0.3 ESE 2 7 1 4 1018.0 1018.7 0.0
11/08:00pm 3.8 0.9 2.5 91 0.5 E 7 9 4 5 1018.2 1018.9 0.0
11/07:30pm 4.4 2.5 2.6 88 0.8 ESE 2 7 1 4 1018.3 1019.0 0.0
11/07:00pm 4.8 2.0 3.0 88 0.8 E 7 9 4 5 1018.4 1019.1 0.0
11/06:30pm 5.3 3.8 3.0 85 1.0 CALM 0 0 0 0 1018.4 1019.1 0.0
11/06:00pm 6.6 5.0 2.5 75 1.8 CALM 0 0 0 0 1018.1 1018.8 0.0
11/05:30pm 8.2 5.5 3.5 72 2.1 N 7 13 4 7 1017.9 1018.6 0.0
11/05:00pm 9.2 5.7 3.6 68 2.5 N 11 17 6 9 1017.8 1018.5 0.0
11/04:30pm 10.3 6.9 3.8 64 3.0 NNW 11 17 6 9 1017.6 1018.3 0.0
11/04:00pm 11.0 7.6 3.8 61 3.3 NW 11 17 6 9 1017.5 1018.2 0.0
11/03:30pm 11.1 8.7 4.1 62 3.2 NE 6 13 3 7 1017.3 1018.0 0.0
11/03:00pm 10.9 8.2 3.7 61 3.3 NNE 7 19 4 10 1017.7 1018.4 0.0
11/02:30pm 10.3 7.2 3.6 63 3.0 N 9 17 5 9 1018.3 1019.0 0.0
11/02:00pm 9.7 6.5 3.2 64 2.9 N 9 17 5 9 1018.5 1019.2 0.0
11/01:30pm 9.0 5.7 2.6 64 2.8 N 9 15 5 8 1018.9 1019.7 0.0
11/01:00pm 8.8 5.5 2.4 64 2.8 NNE 9 15 5 8 1019.5 1020.2 0.0
11/12:30pm 8.2 4.9 2.7 68 2.4 NNE 9 15 5 8 1020.1 1020.8 0.0
11/12:00pm 7.8 4.1 2.3 68 2.4 N 11 17 6 9 1020.6 1021.4 0.0
11/11:30am 8.1 4.8 2.6 68 2.4 N 9 17 5 9 1021.1 1021.8 0.0
11/11:00am 7.1 3.4 2.6 73 1.9 ENE 11 15 6 8 1021.3 1022.0 0.0
11/10:30am 6.5 3.2 2.4 75 1.7 E 9 11 5 6 1021.8 1022.6 0.0
11/10:00am 5.4 3.8 2.6 82 1.2 CALM 0 0 0 0 1022.0 1022.8 0.0
11/09:30am 4.0 2.3 1.9 86 0.9 CALM 0 0 0 0 1022.1 1022.9 0.0
11/09:00am 2.8 0.2 1.0 88 0.7 W 4 6 2 3 1022.2 1023.0 0.0
11/08:30am 2.2 -0.3 1.5 95 0.3 ENE 4 6 2 3 1022.0 1022.8 0.0
11/08:00am 0.0 -2.0 -0.1 99 0.0 CALM 0 0 0 0 1022.0 1022.8 0.0
11/07:30am -3.4 -5.8 -3.5 99 -0.1 CALM 0 0 0 0 1021.7 1022.4 0.0
11/07:00am -4.0 -6.5 -4.4 97 0.0 CALM 0 0 0 0 1021.6 1022.3 0.0
11/06:30am -3.8 -6.3 -4.1 98 -0.1 CALM 0 0 0 0 1021.7 1022.4 0.0
11/06:00am -3.5 -6.0 -3.8 98 -0.1 CALM 0 0 0 0 1021.8 1022.6 0.0
11/05:30am -3.4 -5.9 -3.7 98 0.0 CALM 0 0 0 0 1021.5 1022.2 0.0
11/05:00am -3.0 -5.4 -3.1 99 -0.1 CALM 0 0 0 0 1021.2 1021.9 0.0
11/04:30am -3.1 -5.5 -3.4 98 0.0 CALM 0 0 0 0 1021.1 1021.8 0.0
11/04:00am -2.5 -4.8 -2.6 99 -0.1 CALM 0 0 0 0 1021.1 1021.8 0.0
11/03:30am -2.6 -4.9 -2.7 99 -0.1 CALM 0 0 0 0 1021.3 1022.0 0.0
11/03:00am -2.3 -4.6 -2.6 98 0.0 CALM 0 0 0 0 1021.8 1022.6 0.0
11/02:30am -1.9 -4.2 -2.0 99 -0.1 CALM 0 0 0 0 1022.1 1022.9 0.0
11/02:00am -1.2 -3.4 -1.3 99 0.0 CALM 0 0 0 0 1022.4 1023.2 0.0
11/01:30am -1.4 -3.6 -1.8 97 0.1 CALM 0 0 0 0 1022.7 1023.5 0.0
11/01:00am -1.0 -3.2 -1.3 98 0.1 CALM 0 0 0 0 1022.6 1023.4 0.0
11/12:30am -0.3 -2.3 -0.4 99 0.0 CALM 0 0 0 0 1022.3 1023.1 0.0
11/12:00am 0.0 -2.0 -0.1 99 0.0 CALM 0 0 0 0 1022.5 1023.3 0.0
 
Date/Time
EST
Temp
°C
App
Temp
°C
Dew
Point
°C
Rel
Hum
%
Delta-T
°C
Wind Press
QNH
hPa
Press
MSL
hPa
Rain since
9am
mm
Dir  Spd
km/h
Gust
km/h
Spd
kts
Gust
kts
10/11:30pm 0.2 -1.8 -0.2 97 0.1 CALM 0 0 0 0 1022.4 1023.2 0.0
10/11:00pm 0.4 -1.7 -0.5 94 0.3 CALM 0 0 0 0 1022.3 1023.1 0.0
10/10:30pm 1.1 -0.9 -0.1 92 0.5 CALM 0 0 0 0 1022.2 1023.0 0.0
10/10:00pm 1.7 -0.3 0.1 89 0.6 CALM 0 0 0 0 1022.2 1023.0 0.0
10/09:30pm 2.7 0.8 0.6 86 0.8 CALM 0 0 0 0 1022.2 1023.0 0.0
10/09:00pm 3.1 1.1 0.0 80 1.2 CALM 0 0 0 0 1022.1 1022.9 0.0
10/08:30pm 5.2 2.2 1.1 75 1.7 E 6 9 3 5 1022.0 1022.8 0.0
10/08:00pm 5.2 2.2 1.7 78 1.4 E 7 9 4 5 1022.0 1022.8 0.0
10/07:30pm 5.7 2.7 1.8 76 1.6 E 7 11 4 6 1021.8 1022.6 0.0
10/07:00pm 6.1 3.0 1.4 72 1.9 N 7 9 4 5 1021.8 1022.6 0.0
10/06:30pm 7.1 4.9 1.0 65 2.5 SE 2 7 1 4 1021.3 1022.0 0.0
10/06:00pm 8.5 5.4 1.4 61 3.0 SE 7 11 4 6 1020.8 1021.6 0.0
10/05:30pm 9.5 6.0 1.4 57 3.5 SSE 9 15 5 8 1020.6 1021.4 0.0
10/05:00pm 10.3 5.3 1.2 53 3.9 S 17 24 9 13 1020.3 1021.1 0.0
10/04:30pm 10.7 5.1 1.5 53 4.0 S 20 28 11 15 1020.2 1020.9 0.0
10/04:00pm 11.0 5.6 1.5 52 4.1 S 19 30 10 16 1019.8 1020.5 0.0
10/03:30pm 11.3 6.4 1.8 52 4.2 S 17 24 9 13 1019.6 1020.3 0.0
10/03:00pm 11.4 6.1 1.9 52 4.2 SSE 19 28 10 15 1019.6 1020.3 0.0
10/02:30pm 12.0 7.1 2.2 51 4.4 S 17 30 9 16 1019.8 1020.5 0.0
10/02:00pm 11.5 5.9 1.2 49 4.5 S 20 32 11 17 1019.9 1020.6 0.0
10/01:30pm 11.4 6.1 1.6 51 4.3 SSE 19 30 10 16 1020.3 1021.1 0.0
10/01:00pm 11.0 4.7 1.3 51 4.2 SSE 24 35 13 19 1020.3 1021.1 0.0
10/12:30pm 11.0 5.5 2.1 54 3.9 S 20 30 11 16 1020.5 1021.3 0.0
10/12:00pm 10.3 4.1 2.2 57 3.5 SSE 24 33 13 18 1020.9 1021.7 0.0
10/11:30am 10.2 4.7 1.8 56 3.7 S 20 33 11 18 1021.4 1022.1 0.0
10/11:00am 9.8 4.4 2.2 59 3.3 S 20 32 11 17 1021.5 1022.2 0.0
10/10:30am 9.5 2.4 1.2 56 3.5 SSE 28 43 15 23 1021.4 1022.1 0.0
10/10:00am 8.6 3.0 1.3 60 3.1 S 20 30 11 16 1021.4 1022.1 0.0
10/09:30am 8.3 1.8 0.5 58 3.2 S 24 37 13 20 1021.1 1021.8 0.0
10/09:00am 8.5 2.4 0.5 57 3.3 SSE 22 33 12 18 1020.6 1021.4 6.6
10/08:30am 8.2 2.6 1.4 62 2.9 S 20 43 11 23 1020.3 1021.1 6.6
10/08:00am 7.9 2.4 0.9 61 2.9 S 19 28 10 15 1020.1 1020.8 6.6
10/07:30am 7.5 2.2 1.6 66 2.5 S 19 30 10 16 1019.6 1020.3 6.6
10/07:00am 7.4 1.6 2.1 69 2.3 S 22 37 12 20 1019.0 1019.8 6.6
10/06:30am 7.5 1.4 2.8 72 2.0 S 24 39 13 21 1018.6 1019.3 6.6
10/06:00am 7.4 1.4 3.3 75 1.8 S 24 39 13 21 1017.9 1018.6 6.6
10/05:30am 7.3 1.3 3.5 77 1.7 S 24 37 13 20 1017.6 1018.3 6.6
10/05:00am 7.5 1.5 3.6 76 1.7 S 24 39 13 21 1017.1 1017.8 6.6
10/04:30am 7.5 1.6 3.7 77 1.7 S 24 43 13 23 1016.9 1017.6 6.6
10/04:00am 7.4 1.5 3.8 78 1.6 S 24 41 13 22 1017.0 1017.7 6.6
10/03:30am 7.6 1.9 2.7 71 2.1 S 22 41 12 22 1016.9 1017.6 6.6
10/03:00am 8.1 2.4 2.8 69 2.3 S 22 33 12 18 1016.7 1017.4 6.6
10/02:30am 8.1 2.1 3.2 71 2.2 S 24 39 13 21 1016.4 1017.1 6.6
10/02:00am 8.1 2.2 3.8 74 1.9 S 24 37 13 20 1016.2 1016.9 6.6
10/01:30am 8.0 2.5 3.8 75 1.9 S 22 37 12 20 1016.1 1016.8 6.6
10/01:00am 8.1 2.2 3.9 75 1.9 S 24 37 13 20 1015.9 1016.5 6.6
10/12:30am 8.1 2.6 3.8 74 1.9 S 22 37 12 20 1015.8 1016.4 6.6
10/12:00am 8.4 1.3 3.8 73 2.1 S 30 44 16 24 1015.8 1016.4 6.6
 
Date/Time
EST
Temp
°C
App
Temp
°C
Dew
Point
°C
Rel
Hum
%
Delta-T
°C
Wind Press
QNH
hPa
Press
MSL
hPa
Rain since
9am
mm
Dir  Spd
km/h
Gust
km/h
Spd
kts
Gust
kts
09/11:30pm 8.3 2.7 3.6 72 2.1 S 22 35 12 19 1015.5 1016.2 6.6
09/11:00pm 8.6 2.6 3.4 70 2.3 SSE 24 39 13 21 1015.2 1015.9 6.6
09/10:30pm 8.5 2.6 3.8 72 2.1 S 24 43 13 23 1015.1 1015.8 6.6
09/10:00pm 8.3 2.8 3.9 74 2.0 SSE 22 37 12 20 1014.9 1015.6 6.6
09/09:30pm 8.3 2.4 3.9 74 2.0 S 24 35 13 19 1014.8 1015.5 6.6
09/09:00pm 8.5 2.2 3.8 72 2.1 SSE 26 39 14 21 1014.8 1015.5 6.6
09/08:30pm 8.4 2.5 3.8 73 2.1 SSE 24 37 13 20 1014.6 1015.3 6.6
09/08:00pm 8.6 2.8 4.2 74 2.0 SSE 24 39 13 21 1014.4 1015.0 6.6

Other formats

Comma delimited format used in spreadsheet applications
http://www.bom.gov.au/fwo/IDN60801/IDN60801.94925.axf

JavaScript Object Notation format (JSON) in row-major order
http://www.bom.gov.au/fwo/IDN60801/IDN60801.94925.json

Data quality

Most of these data are generated automatically and are frequently updated. Quality checks on data are not normally performed. It is possible for incorrect values to appear. Refer to information at About Latest Weather Observations and please check the disclaimer before using these data.